sensor_id;sensor_type;location;lat;lon;timestamp;temperature;humidity
81311;DHT22;70779;52.506;5.492;2023-08-24T04:46:42;18.70;70.20
81311;DHT22;70779;52.506;5.492;2023-08-24T04:49:08;18.60;70.20
81311;DHT22;70779;52.506;5.492;2023-08-24T04:51:35;18.60;70.30
81311;DHT22;70779;52.506;5.492;2023-08-24T04:54:01;18.60;70.20
81311;DHT22;70779;52.506;5.492;2023-08-24T04:56:28;18.60;70.20
81311;DHT22;70779;52.506;5.492;2023-08-24T04:58:55;18.70;70.20
81311;DHT22;70779;52.506;5.492;2023-08-24T05:01:26;18.70;70.20
81311;DHT22;70779;52.506;5.492;2023-08-24T05:03:53;18.70;70.20
81311;DHT22;70779;52.506;5.492;2023-08-24T05:06:20;18.80;70.10
81311;DHT22;70779;52.506;5.492;2023-08-24T05:08:46;18.80;70.10
81311;DHT22;70779;52.506;5.492;2023-08-24T05:13:42;18.80;70.00
81311;DHT22;70779;52.506;5.492;2023-08-24T05:16:12;18.90;70.00
81311;DHT22;70779;52.506;5.492;2023-08-24T05:18:39;18.90;70.00
81311;DHT22;70779;52.506;5.492;2023-08-24T05:21:05;18.90;69.80
81311;DHT22;70779;52.506;5.492;2023-08-24T05:23:35;19.00;69.80
81311;DHT22;70779;52.506;5.492;2023-08-24T05:26:02;19.10;69.80
81311;DHT22;70779;52.506;5.492;2023-08-24T05:28:30;19.30;69.50
81311;DHT22;70779;52.506;5.492;2023-08-24T05:30:57;19.50;69.10
81311;DHT22;70779;52.506;5.492;2023-08-24T05:33:24;19.90;68.60
81311;DHT22;70779;52.506;5.492;2023-08-24T05:35:51;20.10;67.90
81311;DHT22;70779;52.506;5.492;2023-08-24T05:38:17;20.10;67.60
81311;DHT22;70779;52.506;5.492;2023-08-24T05:40:47;20.10;67.40
81311;DHT22;70779;52.506;5.492;2023-08-24T05:43:13;20.10;67.40
81311;DHT22;70779;52.506;5.492;2023-08-24T05:45:40;20.10;67.40
81311;DHT22;70779;52.506;5.492;2023-08-24T05:48:07;20.00;67.50
81311;DHT22;70779;52.506;5.492;2023-08-24T05:50:33;20.00;67.60
81311;DHT22;70779;52.506;5.492;2023-08-24T05:52:59;20.00;67.70
81311;DHT22;70779;52.506;5.492;2023-08-24T05:55:25;19.90;67.80
81311;DHT22;70779;52.506;5.492;2023-08-24T05:57:51;19.90;67.90
81311;DHT22;70779;52.506;5.492;2023-08-24T06:00:18;19.90;67.90
81311;DHT22;70779;52.506;5.492;2023-08-24T06:02:44;20.00;67.80
81311;DHT22;70779;52.506;5.492;2023-08-24T06:05:10;20.00;67.80
81311;DHT22;70779;52.506;5.492;2023-08-24T06:07:37;20.00;67.60
81311;DHT22;70779;52.506;5.492;2023-08-24T06:10:03;20.10;67.60
81311;DHT22;70779;52.506;5.492;2023-08-24T06:12:29;20.10;67.60
81311;DHT22;70779;52.506;5.492;2023-08-24T06:14:55;20.30;67.50
81311;DHT22;70779;52.506;5.492;2023-08-24T06:17:21;20.30;67.50
81311;DHT22;70779;52.506;5.492;2023-08-24T06:19:47;20.40;67.30
81311;DHT22;70779;52.506;5.492;2023-08-24T06:22:13;20.50;67.10
81311;DHT22;70779;52.506;5.492;2023-08-24T06:24:40;20.60;66.90
81311;DHT22;70779;52.506;5.492;2023-08-24T06:27:06;20.60;66.80
81311;DHT22;70779;52.506;5.492;2023-08-24T06:29:32;20.60;66.90
81311;DHT22;70779;52.506;5.492;2023-08-24T06:31:58;20.70;66.70
81311;DHT22;70779;52.506;5.492;2023-08-24T06:34:24;20.80;66.70
81311;DHT22;70779;52.506;5.492;2023-08-24T06:36:50;20.90;66.60
81311;DHT22;70779;52.506;5.492;2023-08-24T06:39:17;20.90;66.60
81311;DHT22;70779;52.506;5.492;2023-08-24T06:41:43;21.00;66.40
81311;DHT22;70779;52.506;5.492;2023-08-24T06:44:09;21.10;66.30
81311;DHT22;70779;52.506;5.492;2023-08-24T06:46:35;21.10;66.40
81311;DHT22;70779;52.506;5.492;2023-08-24T06:49:02;21.30;66.20
81311;DHT22;70779;52.506;5.492;2023-08-24T06:51:28;21.40;66.10
81311;DHT22;70779;52.506;5.492;2023-08-24T06:53:55;21.50;66.30
81311;DHT22;70779;52.506;5.492;2023-08-24T06:56:21;22.10;65.90
81311;DHT22;70779;52.506;5.492;2023-08-24T06:58:48;23.00;64.30
81311;DHT22;70779;52.506;5.492;2023-08-24T07:01:14;23.90;61.80
81311;DHT22;70779;52.506;5.492;2023-08-24T07:03:40;24.40;60.90
81311;DHT22;70779;52.506;5.492;2023-08-24T07:06:06;24.70;60.20
81311;DHT22;70779;52.506;5.492;2023-08-24T07:08:34;25.00;59.60
81311;DHT22;70779;52.506;5.492;2023-08-24T07:11:01;25.40;58.40
81311;DHT22;70779;52.506;5.492;2023-08-24T07:13:28;25.80;57.40
81311;DHT22;70779;52.506;5.492;2023-08-24T07:15:54;26.20;57.10
81311;DHT22;70779;52.506;5.492;2023-08-24T07:18:21;26.70;56.20
81311;DHT22;70779;52.506;5.492;2023-08-24T07:20:47;27.30;55.50
81311;DHT22;70779;52.506;5.492;2023-08-24T07:23:14;27.80;54.50
81311;DHT22;70779;52.506;5.492;2023-08-24T07:25:40;28.40;53.70
81311;DHT22;70779;52.506;5.492;2023-08-24T07:28:07;28.90;52.60
81311;DHT22;70779;52.506;5.492;2023-08-24T07:30:35;29.20;51.80
81311;DHT22;70779;52.506;5.492;2023-08-24T07:33:02;29.40;52.00
81311;DHT22;70779;52.506;5.492;2023-08-24T07:35:31;29.70;51.60
81311;DHT22;70779;52.506;5.492;2023-08-24T07:37:57;30.30;50.60
81311;DHT22;70779;52.506;5.492;2023-08-24T07:40:24;30.70;49.70
81311;DHT22;70779;52.506;5.492;2023-08-24T07:42:53;31.10;49.00
81311;DHT22;70779;52.506;5.492;2023-08-24T07:45:20;31.30;48.40
81311;DHT22;70779;52.506;5.492;2023-08-24T07:47:47;31.40;48.10
81311;DHT22;70779;52.506;5.492;2023-08-24T07:50:13;31.50;48.10
81311;DHT22;70779;52.506;5.492;2023-08-24T07:52:40;31.60;48.10
81311;DHT22;70779;52.506;5.492;2023-08-24T07:55:07;31.80;47.60
81311;DHT22;70779;52.506;5.492;2023-08-24T07:57:34;32.00;47.50
81311;DHT22;70779;52.506;5.492;2023-08-24T08:00:00;32.40;46.90
81311;DHT22;70779;52.506;5.492;2023-08-24T08:02:26;32.60;47.00
81311;DHT22;70779;52.506;5.492;2023-08-24T08:04:56;33.00;46.60
81311;DHT22;70779;52.506;5.492;2023-08-24T08:07:26;33.40;46.40
81311;DHT22;70779;52.506;5.492;2023-08-24T08:09:52;33.70;45.70
81311;DHT22;70779;52.506;5.492;2023-08-24T08:12:18;33.90;45.40
81311;DHT22;70779;52.506;5.492;2023-08-24T08:14:44;33.90;45.50
81311;DHT22;70779;52.506;5.492;2023-08-24T08:17:10;33.60;45.50
81311;DHT22;70779;52.506;5.492;2023-08-24T08:19:36;33.20;45.70
81311;DHT22;70779;52.506;5.492;2023-08-24T08:22:04;33.00;46.20
81311;DHT22;70779;52.506;5.492;2023-08-24T08:24:30;33.30;46.10
81311;DHT22;70779;52.506;5.492;2023-08-24T08:26:56;33.80;45.40
81311;DHT22;70779;52.506;5.492;2023-08-24T08:29:23;34.10;45.00
81311;DHT22;70779;52.506;5.492;2023-08-24T08:31:49;34.20;44.50
81311;DHT22;70779;52.506;5.492;2023-08-24T08:34:15;34.00;44.30
81311;DHT22;70779;52.506;5.492;2023-08-24T08:36:41;33.80;44.70
81311;DHT22;70779;52.506;5.492;2023-08-24T08:39:07;33.80;45.00
81311;DHT22;70779;52.506;5.492;2023-08-24T08:41:41;33.80;44.70
81311;DHT22;70779;52.506;5.492;2023-08-24T08:44:10;33.40;45.10
81311;DHT22;70779;52.506;5.492;2023-08-24T08:46:39;32.80;45.80
81311;DHT22;70779;52.506;5.492;2023-08-24T08:49:07;32.20;46.70
81311;DHT22;70779;52.506;5.492;2023-08-24T08:51:36;31.50;47.70
81311;DHT22;70779;52.506;5.492;2023-08-24T08:54:03;30.90;48.40
81311;DHT22;70779;52.506;5.492;2023-08-24T08:56:34;30.50;48.70
81311;DHT22;70779;52.506;5.492;2023-08-24T08:59:01;30.00;49.40
81311;DHT22;70779;52.506;5.492;2023-08-24T09:01:28;29.60;50.10
81311;DHT22;70779;52.506;5.492;2023-08-24T09:03:54;29.30;50.60
81311;DHT22;70779;52.506;5.492;2023-08-24T09:06:20;29.20;51.20
81311;DHT22;70779;52.506;5.492;2023-08-24T09:08:48;29.20;51.60
81311;DHT22;70779;52.506;5.492;2023-08-24T09:11:15;29.20;51.60
81311;DHT22;70779;52.506;5.492;2023-08-24T09:13:43;29.20;51.50
81311;DHT22;70779;52.506;5.492;2023-08-24T09:16:09;29.10;51.80
81311;DHT22;70779;52.506;5.492;2023-08-24T09:18:43;29.00;51.90
81311;DHT22;70779;52.506;5.492;2023-08-24T09:21:11;28.90;52.20
81311;DHT22;70779;52.506;5.492;2023-08-24T09:23:43;28.70;52.60
81311;DHT22;70779;52.506;5.492;2023-08-24T09:26:10;28.60;52.70
81311;DHT22;70779;52.506;5.492;2023-08-24T09:28:37;28.50;52.80
81311;DHT22;70779;52.506;5.492;2023-08-24T09:31:05;28.40;52.80
81311;DHT22;70779;52.506;5.492;2023-08-24T09:33:31;28.30;53.10
81311;DHT22;70779;52.506;5.492;2023-08-24T09:35:57;28.20;53.30
81311;DHT22;70779;52.506;5.492;2023-08-24T09:38:27;28.10;53.50
81311;DHT22;70779;52.506;5.492;2023-08-24T09:40:56;28.10;53.60
81311;DHT22;70779;52.506;5.492;2023-08-24T09:43:23;28.00;53.70
81311;DHT22;70779;52.506;5.492;2023-08-24T09:45:56;27.90;54.00
81311;DHT22;70779;52.506;5.492;2023-08-24T09:48:23;27.80;54.10
81311;DHT22;70779;52.506;5.492;2023-08-24T09:50:50;27.80;54.20
81311;DHT22;70779;52.506;5.492;2023-08-24T09:53:24;27.70;54.40
81311;DHT22;70779;52.506;5.492;2023-08-24T09:55:56;27.70;54.50
81311;DHT22;70779;52.506;5.492;2023-08-24T09:58:24;27.60;54.50
81311;DHT22;70779;52.506;5.492;2023-08-24T10:00:51;27.50;54.60
81311;DHT22;70779;52.506;5.492;2023-08-24T10:03:21;27.40;55.00
81311;DHT22;70779;52.506;5.492;2023-08-24T10:05:54;27.30;55.10
81311;DHT22;70779;52.506;5.492;2023-08-24T10:08:24;27.10;55.50
81311;DHT22;70779;52.506;5.492;2023-08-24T10:10:52;26.90;55.80
81311;DHT22;70779;52.506;5.492;2023-08-24T10:13:23;26.70;56.00
81311;DHT22;70779;52.506;5.492;2023-08-24T10:15:52;26.60;56.50
81311;DHT22;70779;52.506;5.492;2023-08-24T10:18:20;26.50;56.80
81311;DHT22;70779;52.506;5.492;2023-08-24T10:20:47;26.50;57.00
81311;DHT22;70779;52.506;5.492;2023-08-24T10:23:14;26.50;57.00
81311;DHT22;70779;52.506;5.492;2023-08-24T10:25:42;26.60;57.10
81311;DHT22;70779;52.506;5.492;2023-08-24T10:28:10;26.60;57.40
81311;DHT22;70779;52.506;5.492;2023-08-24T10:30:37;26.70;57.60
81311;DHT22;70779;52.506;5.492;2023-08-24T10:33:05;26.80;57.70
81311;DHT22;70779;52.506;5.492;2023-08-24T10:35:32;26.90;57.70
81311;DHT22;70779;52.506;5.492;2023-08-24T10:37:59;27.00;57.60
81311;DHT22;70779;52.506;5.492;2023-08-24T10:40:36;27.00;57.60
81311;DHT22;70779;52.506;5.492;2023-08-24T10:43:03;27.10;57.60
81311;DHT22;70779;52.506;5.492;2023-08-24T10:48:20;27.20;57.70
81311;DHT22;70779;52.506;5.492;2023-08-24T10:53:48;27.20;58.90
81311;DHT22;70779;52.506;5.492;2023-08-24T10:56:17;27.20;59.20
81311;DHT22;70779;52.506;5.492;2023-08-24T10:58:45;27.20;59.70
81311;DHT22;70779;52.506;5.492;2023-08-24T11:01:15;27.10;60.10
81311;DHT22;70779;52.506;5.492;2023-08-24T11:03:54;27.00;60.70
81311;DHT22;70779;52.506;5.492;2023-08-24T11:06:22;26.90;61.00
81311;DHT22;70779;52.506;5.492;2023-08-24T11:08:49;26.80;61.50
81311;DHT22;70779;52.506;5.492;2023-08-24T11:11:22;26.70;61.80
81311;DHT22;70779;52.506;5.492;2023-08-24T11:14:24;26.60;62.10
81311;DHT22;70779;52.506;5.492;2023-08-24T11:17:17;26.50;62.40
81311;DHT22;70779;52.506;5.492;2023-08-24T11:19:49;26.40;62.80
81311;DHT22;70779;52.506;5.492;2023-08-24T11:22:17;26.40;63.20
81311;DHT22;70779;52.506;5.492;2023-08-24T11:24:44;26.30;63.50
81311;DHT22;70779;52.506;5.492;2023-08-24T11:27:10;26.20;63.50
81311;DHT22;70779;52.506;5.492;2023-08-24T11:29:36;26.10;63.90
81311;DHT22;70779;52.506;5.492;2023-08-24T11:32:03;26.10;64.10
81311;DHT22;70779;52.506;5.492;2023-08-24T11:34:30;26.10;64.20
81311;DHT22;70779;52.506;5.492;2023-08-24T11:36:56;26.10;64.30
81311;DHT22;70779;52.506;5.492;2023-08-24T11:39:23;26.10;64.20
81311;DHT22;70779;52.506;5.492;2023-08-24T11:42:01;26.20;64.10
81311;DHT22;70779;52.506;5.492;2023-08-24T11:44:27;26.30;64.00
81311;DHT22;70779;52.506;5.492;2023-08-24T11:46:56;26.40;63.90
81311;DHT22;70779;52.506;5.492;2023-08-24T11:49:23;26.40;63.90
81311;DHT22;70779;52.506;5.492;2023-08-24T11:51:50;26.50;63.60
81311;DHT22;70779;52.506;5.492;2023-08-24T11:54:18;26.60;63.50
81311;DHT22;70779;52.506;5.492;2023-08-24T11:56:44;26.90;62.90
81311;DHT22;70779;52.506;5.492;2023-08-24T11:59:13;27.00;62.70
81311;DHT22;70779;52.506;5.492;2023-08-24T12:01:41;27.10;62.10
81311;DHT22;70779;52.506;5.492;2023-08-24T12:04:08;27.10;61.90
81311;DHT22;70779;52.506;5.492;2023-08-24T12:06:34;27.10;62.10
81311;DHT22;70779;52.506;5.492;2023-08-24T12:09:00;27.10;61.80
81311;DHT22;70779;52.506;5.492;2023-08-24T12:11:28;27.00;61.60
81311;DHT22;70779;52.506;5.492;2023-08-24T12:13:55;26.90;61.30
81311;DHT22;70779;52.506;5.492;2023-08-24T12:16:22;26.80;61.20
81311;DHT22;70779;52.506;5.492;2023-08-24T12:21:23;26.50;61.20
81311;DHT22;70779;52.506;5.492;2023-08-24T12:24:00;26.40;61.50
81311;DHT22;70779;52.506;5.492;2023-08-24T12:26:27;26.40;61.60
81311;DHT22;70779;52.506;5.492;2023-08-24T12:28:59;26.30;61.50
81311;DHT22;70779;52.506;5.492;2023-08-24T12:31:27;26.30;61.50
81311;DHT22;70779;52.506;5.492;2023-08-24T12:33:59;26.40;61.60
81311;DHT22;70779;52.506;5.492;2023-08-24T12:36:25;26.40;61.90
81311;DHT22;70779;52.506;5.492;2023-08-24T12:38:51;26.60;61.60
81311;DHT22;70779;52.506;5.492;2023-08-24T12:41:17;26.70;61.30
81311;DHT22;70779;52.506;5.492;2023-08-24T12:43:43;26.80;61.10
81311;DHT22;70779;52.506;5.492;2023-08-24T12:46:09;26.80;60.80
81311;DHT22;70779;52.506;5.492;2023-08-24T12:48:36;26.80;60.50
81311;DHT22;70779;52.506;5.492;2023-08-24T12:51:02;26.80;60.50
81311;DHT22;70779;52.506;5.492;2023-08-24T12:53:28;26.70;60.90
81311;DHT22;70779;52.506;5.492;2023-08-24T12:55:54;26.50;61.40
81311;DHT22;70779;52.506;5.492;2023-08-24T12:58:20;26.50;61.80
81311;DHT22;70779;52.506;5.492;2023-08-24T13:00:46;26.40;61.50
81311;DHT22;70779;52.506;5.492;2023-08-24T13:03:13;26.40;61.40
81311;DHT22;70779;52.506;5.492;2023-08-24T13:05:39;26.40;61.40
81311;DHT22;70779;52.506;5.492;2023-08-24T13:08:05;26.50;61.30
81311;DHT22;70779;52.506;5.492;2023-08-24T13:10:31;26.60;61.20
81311;DHT22;70779;52.506;5.492;2023-08-24T13:12:57;26.70;60.70
81311;DHT22;70779;52.506;5.492;2023-08-24T13:15:24;26.80;60.50
81311;DHT22;70779;52.506;5.492;2023-08-24T13:17:50;26.70;60.80
81311;DHT22;70779;52.506;5.492;2023-08-24T13:20:16;26.50;61.10
81311;DHT22;70779;52.506;5.492;2023-08-24T13:22:42;26.40;61.40
81311;DHT22;70779;52.506;5.492;2023-08-24T13:25:09;26.20;61.40
81311;DHT22;70779;52.506;5.492;2023-08-24T13:27:35;26.10;61.70
81311;DHT22;70779;52.506;5.492;2023-08-24T13:30:02;26.00;62.00
81311;DHT22;70779;52.506;5.492;2023-08-24T13:32:28;26.00;62.20
81311;DHT22;70779;52.506;5.492;2023-08-24T13:34:54;26.00;62.30
81311;DHT22;70779;52.506;5.492;2023-08-24T13:37:22;26.10;62.00
81311;DHT22;70779;52.506;5.492;2023-08-24T13:39:50;26.20;62.00
81311;DHT22;70779;52.506;5.492;2023-08-24T13:42:17;26.20;61.70
81311;DHT22;70779;52.506;5.492;2023-08-24T13:44:44;26.30;61.70
81311;DHT22;70779;52.506;5.492;2023-08-24T13:47:10;26.30;61.80
81311;DHT22;70779;52.506;5.492;2023-08-24T13:49:36;26.30;61.60
81311;DHT22;70779;52.506;5.492;2023-08-24T13:52:03;26.40;61.60
81311;DHT22;70779;52.506;5.492;2023-08-24T13:54:30;26.30;61.60
81311;DHT22;70779;52.506;5.492;2023-08-24T13:56:56;26.30;61.40
81311;DHT22;70779;52.506;5.492;2023-08-24T13:59:24;26.30;61.50
81311;DHT22;70779;52.506;5.492;2023-08-24T14:01:50;26.30;61.40
81311;DHT22;70779;52.506;5.492;2023-08-24T14:04:16;26.20;61.40
81311;DHT22;70779;52.506;5.492;2023-08-24T14:06:43;26.20;61.50
81311;DHT22;70779;52.506;5.492;2023-08-24T14:09:09;26.30;61.50
81311;DHT22;70779;52.506;5.492;2023-08-24T14:11:35;26.20;61.20
81311;DHT22;70779;52.506;5.492;2023-08-24T14:14:01;26.20;61.30
81311;DHT22;70779;52.506;5.492;2023-08-24T14:16:27;26.20;61.50
81311;DHT22;70779;52.506;5.492;2023-08-24T14:18:53;26.40;61.50
81311;DHT22;70779;52.506;5.492;2023-08-24T14:21:19;26.40;61.40
81311;DHT22;70779;52.506;5.492;2023-08-24T14:23:49;26.50;61.30
81311;DHT22;70779;52.506;5.492;2023-08-24T14:26:16;26.50;61.40
81311;DHT22;70779;52.506;5.492;2023-08-24T14:31:17;26.80;61.00
81311;DHT22;70779;52.506;5.492;2023-08-24T14:33:43;27.00;60.40
81311;DHT22;70779;52.506;5.492;2023-08-24T14:36:10;27.10;60.20
81311;DHT22;70779;52.506;5.492;2023-08-24T14:38:39;27.10;60.20
81311;DHT22;70779;52.506;5.492;2023-08-24T14:41:11;27.20;59.80
81311;DHT22;70779;52.506;5.492;2023-08-24T14:43:38;27.20;59.70
81311;DHT22;70779;52.506;5.492;2023-08-24T14:46:05;27.10;59.70
81311;DHT22;70779;52.506;5.492;2023-08-24T14:48:31;27.10;59.40
81311;DHT22;70779;52.506;5.492;2023-08-24T14:50:58;27.10;59.30
81311;DHT22;70779;52.506;5.492;2023-08-24T14:53:25;27.10;59.20
81311;DHT22;70779;52.506;5.492;2023-08-24T14:55:55;27.00;59.40
81311;DHT22;70779;52.506;5.492;2023-08-24T14:58:22;27.00;59.40
81311;DHT22;70779;52.506;5.492;2023-08-24T15:00:49;27.10;59.10
81311;DHT22;70779;52.506;5.492;2023-08-24T15:03:16;27.10;58.80
81311;DHT22;70779;52.506;5.492;2023-08-24T15:06:06;27.10;59.00
81311;DHT22;70779;52.506;5.492;2023-08-24T15:08:32;27.10;58.90
81311;DHT22;70779;52.506;5.492;2023-08-24T15:11:00;27.10;58.90
81311;DHT22;70779;52.506;5.492;2023-08-24T15:13:28;27.10;59.00
81311;DHT22;70779;52.506;5.492;2023-08-24T15:15:56;27.10;59.20
81311;DHT22;70779;52.506;5.492;2023-08-24T15:18:23;27.20;59.20
81311;DHT22;70779;52.506;5.492;2023-08-24T15:20:49;27.20;58.90
81311;DHT22;70779;52.506;5.492;2023-08-24T15:23:26;27.30;58.90
81311;DHT22;70779;52.506;5.492;2023-08-24T15:25:58;27.20;59.00
81311;DHT22;70779;52.506;5.492;2023-08-24T15:28:25;27.30;59.10
81311;DHT22;70779;52.506;5.492;2023-08-24T15:30:51;27.30;59.00
81311;DHT22;70779;52.506;5.492;2023-08-24T15:33:18;27.30;59.00
81311;DHT22;70779;52.506;5.492;2023-08-24T15:35:45;27.30;58.90
81311;DHT22;70779;52.506;5.492;2023-08-24T15:38:11;27.30;58.70
81311;DHT22;70779;52.506;5.492;2023-08-24T15:40:38;27.30;58.90
81311;DHT22;70779;52.506;5.492;2023-08-24T15:43:05;27.30;59.00
81311;DHT22;70779;52.506;5.492;2023-08-24T15:45:32;27.30;58.90
81311;DHT22;70779;52.506;5.492;2023-08-24T15:48:00;27.30;58.80
81311;DHT22;70779;52.506;5.492;2023-08-24T15:50:26;27.40;58.70
81311;DHT22;70779;52.506;5.492;2023-08-24T15:52:52;27.30;58.80
81311;DHT22;70779;52.506;5.492;2023-08-24T15:55:30;27.30;58.70
81311;DHT22;70779;52.506;5.492;2023-08-24T15:58:00;27.30;58.80
81311;DHT22;70779;52.506;5.492;2023-08-24T16:00:30;27.20;58.90
81311;DHT22;70779;52.506;5.492;2023-08-24T16:02:56;27.20;58.80
81311;DHT22;70779;52.506;5.492;2023-08-24T16:05:23;27.20;58.80
81311;DHT22;70779;52.506;5.492;2023-08-24T16:07:51;27.20;58.80
81311;DHT22;70779;52.506;5.492;2023-08-24T16:10:19;27.20;58.70
81311;DHT22;70779;52.506;5.492;2023-08-24T16:12:45;27.20;59.00
81311;DHT22;70779;52.506;5.492;2023-08-24T16:15:11;27.20;59.20
81311;DHT22;70779;52.506;5.492;2023-08-24T16:17:37;27.30;59.30
81311;DHT22;70779;52.506;5.492;2023-08-24T16:20:04;27.40;59.30
81311;DHT22;70779;52.506;5.492;2023-08-24T16:22:33;27.40;59.10
81311;DHT22;70779;52.506;5.492;2023-08-24T16:24:59;27.50;59.00
81311;DHT22;70779;52.506;5.492;2023-08-24T16:27:25;27.50;58.90
81311;DHT22;70779;52.506;5.492;2023-08-24T16:29:51;27.50;58.90
81311;DHT22;70779;52.506;5.492;2023-08-24T16:32:17;27.50;59.00
81311;DHT22;70779;52.506;5.492;2023-08-24T16:34:43;27.50;59.20
81311;DHT22;70779;52.506;5.492;2023-08-24T16:37:09;27.50;59.40
81311;DHT22;70779;52.506;5.492;2023-08-24T16:39:35;27.50;59.40
81311;DHT22;70779;52.506;5.492;2023-08-24T16:42:02;27.50;59.20
81311;DHT22;70779;52.506;5.492;2023-08-24T16:44:29;27.50;59.10
81311;DHT22;70779;52.506;5.492;2023-08-24T16:46:55;27.40;59.20
81311;DHT22;70779;52.506;5.492;2023-08-24T16:49:21;27.30;59.50
81311;DHT22;70779;52.506;5.492;2023-08-24T16:51:47;27.20;59.70
81311;DHT22;70779;52.506;5.492;2023-08-24T16:54:13;27.10;59.90
81311;DHT22;70779;52.506;5.492;2023-08-24T16:56:40;27.10;59.80
81311;DHT22;70779;52.506;5.492;2023-08-24T16:59:06;27.10;59.90
81311;DHT22;70779;52.506;5.492;2023-08-24T17:01:33;27.10;59.90
81311;DHT22;70779;52.506;5.492;2023-08-24T17:04:00;27.10;60.00
81311;DHT22;70779;52.506;5.492;2023-08-24T17:06:26;27.10;60.10
81311;DHT22;70779;52.506;5.492;2023-08-24T17:08:52;27.10;60.30
81311;DHT22;70779;52.506;5.492;2023-08-24T17:11:18;27.00;60.50
81311;DHT22;70779;52.506;5.492;2023-08-24T17:13:49;27.00;60.70
81311;DHT22;70779;52.506;5.492;2023-08-24T17:16:16;27.00;60.80
81311;DHT22;70779;52.506;5.492;2023-08-24T17:18:43;27.00;60.70
81311;DHT22;70779;52.506;5.492;2023-08-24T17:21:09;27.00;60.60
81311;DHT22;70779;52.506;5.492;2023-08-24T17:23:35;27.00;60.60
81311;DHT22;70779;52.506;5.492;2023-08-24T17:26:01;26.90;60.70
81311;DHT22;70779;52.506;5.492;2023-08-24T17:28:27;27.00;60.70
81311;DHT22;70779;52.506;5.492;2023-08-24T17:30:53;27.00;60.50
81311;DHT22;70779;52.506;5.492;2023-08-24T17:33:19;26.90;60.50
81311;DHT22;70779;52.506;5.492;2023-08-24T17:35:49;26.90;60.50
81311;DHT22;70779;52.506;5.492;2023-08-24T17:38:16;26.90;60.50
81311;DHT22;70779;52.506;5.492;2023-08-24T17:40:42;26.90;60.60
81311;DHT22;70779;52.506;5.492;2023-08-24T17:43:08;26.90;60.50
81311;DHT22;70779;52.506;5.492;2023-08-24T17:45:34;26.80;60.80
81311;DHT22;70779;52.506;5.492;2023-08-24T17:48:00;26.70;61.00
81311;DHT22;70779;52.506;5.492;2023-08-24T17:50:26;26.60;61.10
81311;DHT22;70779;52.506;5.492;2023-08-24T17:52:52;26.50;61.30
81311;DHT22;70779;52.506;5.492;2023-08-24T17:55:18;26.50;61.60
81311;DHT22;70779;52.506;5.492;2023-08-24T17:57:44;26.40;61.80
81311;DHT22;70779;52.506;5.492;2023-08-24T18:00:11;26.40;62.20
81311;DHT22;70779;52.506;5.492;2023-08-24T18:02:37;26.40;62.40
81311;DHT22;70779;52.506;5.492;2023-08-24T18:05:03;26.30;62.30
81311;DHT22;70779;52.506;5.492;2023-08-24T18:07:30;26.20;62.50
81311;DHT22;70779;52.506;5.492;2023-08-24T18:09:56;26.10;62.60
81311;DHT22;70779;52.506;5.492;2023-08-24T18:12:23;26.00;62.70
81311;DHT22;70779;52.506;5.492;2023-08-24T18:14:49;26.00;62.90
81311;DHT22;70779;52.506;5.492;2023-08-24T18:17:15;25.90;63.20
81311;DHT22;70779;52.506;5.492;2023-08-24T18:19:41;25.80;63.40
81311;DHT22;70779;52.506;5.492;2023-08-24T18:22:07;25.80;63.70
81311;DHT22;70779;52.506;5.492;2023-08-24T18:24:34;25.70;63.90
81311;DHT22;70779;52.506;5.492;2023-08-24T18:27:00;25.60;64.10
81311;DHT22;70779;52.506;5.492;2023-08-24T18:29:26;25.50;64.40
81311;DHT22;70779;52.506;5.492;2023-08-24T18:31:52;25.50;64.60
81311;DHT22;70779;52.506;5.492;2023-08-24T18:34:18;25.40;64.70
81311;DHT22;70779;52.506;5.492;2023-08-24T18:36:44;25.40;65.00
81311;DHT22;70779;52.506;5.492;2023-08-24T18:39:14;25.30;65.20
81311;DHT22;70779;52.506;5.492;2023-08-24T18:41:40;25.30;65.50
81311;DHT22;70779;52.506;5.492;2023-08-24T18:44:06;25.30;65.60
81311;DHT22;70779;52.506;5.492;2023-08-24T18:46:33;25.30;65.70
81311;DHT22;70779;52.506;5.492;2023-08-24T18:48:59;25.20;65.80
81311;DHT22;70779;52.506;5.492;2023-08-24T18:51:25;25.30;66.00
81311;DHT22;70779;52.506;5.492;2023-08-24T18:53:51;25.20;66.10
81311;DHT22;70779;52.506;5.492;2023-08-24T18:56:17;25.20;66.00
81311;DHT22;70779;52.506;5.492;2023-08-24T18:58:43;25.20;65.90
81311;DHT22;70779;52.506;5.492;2023-08-24T19:01:13;25.10;65.90
81311;DHT22;70779;52.506;5.492;2023-08-24T19:03:40;25.00;66.10
81311;DHT22;70779;52.506;5.492;2023-08-24T19:06:06;25.00;66.20
81311;DHT22;70779;52.506;5.492;2023-08-24T19:08:32;25.00;66.40
81311;DHT22;70779;52.506;5.492;2023-08-24T19:10:58;25.00;66.60
81311;DHT22;70779;52.506;5.492;2023-08-24T19:13:25;25.00;66.60
81311;DHT22;70779;52.506;5.492;2023-08-24T19:15:51;24.90;66.70
81311;DHT22;70779;52.506;5.492;2023-08-24T19:18:18;24.90;66.80
81311;DHT22;70779;52.506;5.492;2023-08-24T19:20:44;24.90;66.80
81311;DHT22;70779;52.506;5.492;2023-08-24T19:23:11;24.90;66.80
81311;DHT22;70779;52.506;5.492;2023-08-24T19:25:37;24.90;66.90
81311;DHT22;70779;52.506;5.492;2023-08-24T19:28:03;24.80;66.90
81311;DHT22;70779;52.506;5.492;2023-08-24T19:30:29;24.80;67.00
81311;DHT22;70779;52.506;5.492;2023-08-24T19:32:55;24.80;67.10
81311;DHT22;70779;52.506;5.492;2023-08-24T19:35:21;24.80;67.10
81311;DHT22;70779;52.506;5.492;2023-08-24T19:37:47;24.90;67.10
81311;DHT22;70779;52.506;5.492;2023-08-24T19:40:13;24.80;67.00
81311;DHT22;70779;52.506;5.492;2023-08-24T19:42:39;24.80;67.00
81311;DHT22;70779;52.506;5.492;2023-08-24T19:45:06;24.90;67.00
81311;DHT22;70779;52.506;5.492;2023-08-24T19:47:32;24.80;67.00
81311;DHT22;70779;52.506;5.492;2023-08-24T19:49:58;24.80;66.90
81311;DHT22;70779;52.506;5.492;2023-08-24T19:52:25;24.80;66.90
81311;DHT22;70779;52.506;5.492;2023-08-24T19:54:51;24.80;66.90
81311;DHT22;70779;52.506;5.492;2023-08-24T19:57:17;24.80;66.90
81311;DHT22;70779;52.506;5.492;2023-08-24T19:59:43;24.80;66.80
